sensor_id;sensor_type;location;lat;lon;timestamp;P1;durP1;ratioP1;P2;durP2;ratioP2
22213;SDS011;11276;43.566;27.824;2022-10-30T00:00:29;9.33;;;5.90;;
22213;SDS011;11276;43.566;27.824;2022-10-30T00:02:56;10.03;;;6.03;;
22213;SDS011;11276;43.566;27.824;2022-10-30T00:05:23;10.40;;;6.17;;
22213;SDS011;11276;43.566;27.824;2022-10-30T00:07:50;11.80;;;5.63;;
22213;SDS011;11276;43.566;27.824;2022-10-30T00:10:17;8.07;;;6.27;;
22213;SDS011;11276;43.566;27.824;2022-10-30T00:12:44;7.77;;;5.30;;
22213;SDS011;11276;43.566;27.824;2022-10-30T00:15:11;9.07;;;6.17;;
22213;SDS011;11276;43.566;27.824;2022-10-30T00:17:37;9.10;;;5.70;;
22213;SDS011;11276;43.566;27.824;2022-10-30T00:20:04;8.37;;;6.00;;
22213;SDS011;11276;43.566;27.824;2022-10-30T00:22:31;12.03;;;5.93;;
22213;SDS011;11276;43.566;27.824;2022-10-30T00:24:58;8.07;;;6.27;;
22213;SDS011;11276;43.566;27.824;2022-10-30T00:27:25;10.37;;;5.80;;
22213;SDS011;11276;43.566;27.824;2022-10-30T00:29:52;8.10;;;6.73;;
22213;SDS011;11276;43.566;27.824;2022-10-30T00:32:19;8.47;;;6.30;;
22213;SDS011;11276;43.566;27.824;2022-10-30T00:34:45;9.27;;;6.30;;
22213;SDS011;11276;43.566;27.824;2022-10-30T00:37:12;14.00;;;7.10;;
22213;SDS011;11276;43.566;27.824;2022-10-30T00:39:39;11.40;;;7.07;;
22213;SDS011;11276;43.566;27.824;2022-10-30T00:42:07;11.40;;;7.57;;
22213;SDS011;11276;43.566;27.824;2022-10-30T00:49:42;14.13;;;7.83;;
22213;SDS011;11276;43.566;27.824;2022-10-30T00:52:23;10.87;;;7.23;;
22213;SDS011;11276;43.566;27.824;2022-10-30T00:54:52;9.43;;;6.60;;
22213;SDS011;11276;43.566;27.824;2022-10-30T00:57:21;13.57;;;7.40;;
22213;SDS011;11276;43.566;27.824;2022-10-30T00:59:49;9.40;;;6.50;;
22213;SDS011;11276;43.566;27.824;2022-10-30T01:02:15;11.60;;;7.37;;
22213;SDS011;11276;43.566;27.824;2022-10-30T01:04:43;11.13;;;6.97;;
22213;SDS011;11276;43.566;27.824;2022-10-30T01:07:14;11.13;;;7.17;;
22213;SDS011;11276;43.566;27.824;2022-10-30T01:09:42;13.10;;;8.27;;
22213;SDS011;11276;43.566;27.824;2022-10-30T01:12:09;11.70;;;7.60;;
22213;SDS011;11276;43.566;27.824;2022-10-30T01:14:37;12.07;;;7.93;;
22213;SDS011;11276;43.566;27.824;2022-10-30T01:17:21;12.80;;;7.73;;
22213;SDS011;11276;43.566;27.824;2022-10-30T01:22:41;16.43;;;8.40;;
22213;SDS011;11276;43.566;27.824;2022-10-30T01:25:19;12.40;;;8.03;;
22213;SDS011;11276;43.566;27.824;2022-10-30T01:36:32;13.07;;;8.07;;
22213;SDS011;11276;43.566;27.824;2022-10-30T01:39:12;11.13;;;7.97;;
22213;SDS011;11276;43.566;27.824;2022-10-30T01:41:41;13.63;;;8.53;;
22213;SDS011;11276;43.566;27.824;2022-10-30T01:44:10;12.80;;;8.10;;
22213;SDS011;11276;43.566;27.824;2022-10-30T01:46:43;13.53;;;8.13;;
22213;SDS011;11276;43.566;27.824;2022-10-30T01:52:03;11.83;;;8.13;;
22213;SDS011;11276;43.566;27.824;2022-10-30T01:54:41;15.60;;;8.30;;
22213;SDS011;11276;43.566;27.824;2022-10-30T02:00:15;15.40;;;8.13;;
22213;SDS011;11276;43.566;27.824;2022-10-30T02:02:42;14.10;;;7.70;;
22213;SDS011;11276;43.566;27.824;2022-10-30T02:05:10;11.40;;;7.97;;
22213;SDS011;11276;43.566;27.824;2022-10-30T02:07:43;12.13;;;8.23;;
22213;SDS011;11276;43.566;27.824;2022-10-30T02:10:09;12.70;;;8.63;;
22213;SDS011;11276;43.566;27.824;2022-10-30T02:12:36;17.60;;;9.33;;
22213;SDS011;11276;43.566;27.824;2022-10-30T02:15:04;16.50;;;9.07;;
22213;SDS011;11276;43.566;27.824;2022-10-30T02:17:31;11.83;;;8.10;;
22213;SDS011;11276;43.566;27.824;2022-10-30T02:19:57;13.70;;;8.57;;
22213;SDS011;11276;43.566;27.824;2022-10-30T02:22:24;11.90;;;8.00;;
22213;SDS011;11276;43.566;27.824;2022-10-30T02:24:51;12.60;;;8.37;;
22213;SDS011;11276;43.566;27.824;2022-10-30T02:27:17;15.30;;;8.90;;
22213;SDS011;11276;43.566;27.824;2022-10-30T02:29:44;11.97;;;8.33;;
22213;SDS011;11276;43.566;27.824;2022-10-30T02:32:11;14.30;;;8.30;;
22213;SDS011;11276;43.566;27.824;2022-10-30T02:34:37;13.37;;;9.00;;
22213;SDS011;11276;43.566;27.824;2022-10-30T02:37:04;13.13;;;8.60;;
22213;SDS011;11276;43.566;27.824;2022-10-30T02:39:31;13.77;;;7.80;;
22213;SDS011;11276;43.566;27.824;2022-10-30T02:41:57;17.17;;;8.90;;
22213;SDS011;11276;43.566;27.824;2022-10-30T02:44:27;18.10;;;8.50;;
22213;SDS011;11276;43.566;27.824;2022-10-30T02:46:53;14.80;;;8.30;;
22213;SDS011;11276;43.566;27.824;2022-10-30T02:49:20;12.83;;;9.53;;
22213;SDS011;11276;43.566;27.824;2022-10-30T02:51:47;18.73;;;9.53;;
22213;SDS011;11276;43.566;27.824;2022-10-30T02:54:13;13.60;;;8.70;;
22213;SDS011;11276;43.566;27.824;2022-10-30T02:56:40;19.90;;;8.73;;
22213;SDS011;11276;43.566;27.824;2022-10-30T02:59:08;13.87;;;8.50;;
22213;SDS011;11276;43.566;27.824;2022-10-30T03:01:35;16.90;;;9.10;;
22213;SDS011;11276;43.566;27.824;2022-10-30T03:04:02;13.07;;;8.90;;
22213;SDS011;11276;43.566;27.824;2022-10-30T03:06:28;12.77;;;8.97;;
22213;SDS011;11276;43.566;27.824;2022-10-30T03:08:55;14.83;;;9.20;;
22213;SDS011;11276;43.566;27.824;2022-10-30T03:11:22;16.40;;;9.20;;
22213;SDS011;11276;43.566;27.824;2022-10-30T03:13:49;12.57;;;9.27;;
22213;SDS011;11276;43.566;27.824;2022-10-30T03:16:20;13.63;;;9.07;;
22213;SDS011;11276;43.566;27.824;2022-10-30T03:18:48;13.03;;;9.00;;
22213;SDS011;11276;43.566;27.824;2022-10-30T03:21:17;13.13;;;8.63;;
22213;SDS011;11276;43.566;27.824;2022-10-30T03:23:47;14.70;;;8.80;;
22213;SDS011;11276;43.566;27.824;2022-10-30T03:26:16;15.50;;;8.40;;
22213;SDS011;11276;43.566;27.824;2022-10-30T03:28:43;14.20;;;9.23;;
22213;SDS011;11276;43.566;27.824;2022-10-30T03:31:11;12.33;;;8.13;;
22213;SDS011;11276;43.566;27.824;2022-10-30T03:33:43;15.00;;;8.60;;
22213;SDS011;11276;43.566;27.824;2022-10-30T03:36:11;14.73;;;8.97;;
22213;SDS011;11276;43.566;27.824;2022-10-30T03:38:38;17.27;;;9.00;;
22213;SDS011;11276;43.566;27.824;2022-10-30T03:41:05;14.57;;;8.53;;
22213;SDS011;11276;43.566;27.824;2022-10-30T03:43:32;18.27;;;9.17;;
22213;SDS011;11276;43.566;27.824;2022-10-30T03:45:59;14.97;;;8.90;;
22213;SDS011;11276;43.566;27.824;2022-10-30T03:48:27;10.73;;;8.00;;
22213;SDS011;11276;43.566;27.824;2022-10-30T03:50:55;16.27;;;9.53;;
22213;SDS011;11276;43.566;27.824;2022-10-30T03:53:23;15.47;;;9.70;;
22213;SDS011;11276;43.566;27.824;2022-10-30T03:55:52;16.37;;;9.70;;
22213;SDS011;11276;43.566;27.824;2022-10-30T03:58:22;16.27;;;8.83;;
22213;SDS011;11276;43.566;27.824;2022-10-30T04:00:49;12.37;;;8.57;;
22213;SDS011;11276;43.566;27.824;2022-10-30T04:03:15;14.90;;;8.90;;
22213;SDS011;11276;43.566;27.824;2022-10-30T04:05:42;16.80;;;9.23;;
22213;SDS011;11276;43.566;27.824;2022-10-30T04:08:12;15.70;;;8.93;;
22213;SDS011;11276;43.566;27.824;2022-10-30T04:10:43;15.93;;;9.40;;
22213;SDS011;11276;43.566;27.824;2022-10-30T04:13:11;15.73;;;8.70;;
22213;SDS011;11276;43.566;27.824;2022-10-30T04:15:39;16.00;;;9.47;;
22213;SDS011;11276;43.566;27.824;2022-10-30T04:18:06;13.97;;;8.70;;
22213;SDS011;11276;43.566;27.824;2022-10-30T04:20:38;14.23;;;9.80;;
22213;SDS011;11276;43.566;27.824;2022-10-30T04:23:05;11.90;;;8.10;;
22213;SDS011;11276;43.566;27.824;2022-10-30T04:25:34;21.20;;;8.87;;
22213;SDS011;11276;43.566;27.824;2022-10-30T04:28:01;13.40;;;8.53;;
22213;SDS011;11276;43.566;27.824;2022-10-30T04:30:28;15.87;;;8.90;;
22213;SDS011;11276;43.566;27.824;2022-10-30T04:32:59;16.83;;;9.57;;
22213;SDS011;11276;43.566;27.824;2022-10-30T04:35:28;14.87;;;9.20;;
22213;SDS011;11276;43.566;27.824;2022-10-30T04:37:57;15.40;;;8.83;;
22213;SDS011;11276;43.566;27.824;2022-10-30T04:40:29;12.30;;;9.00;;
22213;SDS011;11276;43.566;27.824;2022-10-30T04:42:58;15.70;;;9.13;;
22213;SDS011;11276;43.566;27.824;2022-10-30T04:45:25;17.30;;;9.57;;
22213;SDS011;11276;43.566;27.824;2022-10-30T04:47:52;15.00;;;8.80;;
22213;SDS011;11276;43.566;27.824;2022-10-30T04:50:18;13.30;;;9.57;;
22213;SDS011;11276;43.566;27.824;2022-10-30T04:52:45;18.33;;;8.90;;
22213;SDS011;11276;43.566;27.824;2022-10-30T04:55:12;14.57;;;8.50;;
22213;SDS011;11276;43.566;27.824;2022-10-30T04:57:38;15.27;;;8.37;;
22213;SDS011;11276;43.566;27.824;2022-10-30T05:00:06;15.87;;;8.37;;
22213;SDS011;11276;43.566;27.824;2022-10-30T05:02:34;21.70;;;9.87;;
22213;SDS011;11276;43.566;27.824;2022-10-30T05:05:02;18.80;;;10.97;;
22213;SDS011;11276;43.566;27.824;2022-10-30T05:07:30;24.07;;;11.03;;
22213;SDS011;11276;43.566;27.824;2022-10-30T05:09:56;22.03;;;10.50;;
22213;SDS011;11276;43.566;27.824;2022-10-30T05:12:23;18.10;;;10.53;;
22213;SDS011;11276;43.566;27.824;2022-10-30T05:14:50;21.00;;;10.33;;
22213;SDS011;11276;43.566;27.824;2022-10-30T05:17:16;17.93;;;9.53;;
22213;SDS011;11276;43.566;27.824;2022-10-30T05:19:43;18.67;;;10.13;;
22213;SDS011;11276;43.566;27.824;2022-10-30T05:22:10;19.33;;;10.63;;
22213;SDS011;11276;43.566;27.824;2022-10-30T05:24:37;19.23;;;11.70;;
22213;SDS011;11276;43.566;27.824;2022-10-30T05:27:04;20.23;;;10.93;;
22213;SDS011;11276;43.566;27.824;2022-10-30T05:29:31;18.57;;;10.27;;
22213;SDS011;11276;43.566;27.824;2022-10-30T05:31:57;21.27;;;9.77;;
22213;SDS011;11276;43.566;27.824;2022-10-30T05:34:24;17.63;;;10.37;;
22213;SDS011;11276;43.566;27.824;2022-10-30T05:36:51;18.70;;;10.43;;
22213;SDS011;11276;43.566;27.824;2022-10-30T05:39:17;22.40;;;10.17;;
22213;SDS011;11276;43.566;27.824;2022-10-30T05:41:44;23.30;;;10.33;;
22213;SDS011;11276;43.566;27.824;2022-10-30T05:44:11;19.67;;;9.60;;
22213;SDS011;11276;43.566;27.824;2022-10-30T05:46:37;12.60;;;9.10;;
22213;SDS011;11276;43.566;27.824;2022-10-30T05:49:04;14.33;;;9.10;;
22213;SDS011;11276;43.566;27.824;2022-10-30T05:51:31;22.10;;;10.47;;
22213;SDS011;11276;43.566;27.824;2022-10-30T05:54:00;17.73;;;8.27;;
22213;SDS011;11276;43.566;27.824;2022-10-30T05:56:27;14.43;;;7.47;;
22213;SDS011;11276;43.566;27.824;2022-10-30T05:58:53;14.20;;;7.10;;
22213;SDS011;11276;43.566;27.824;2022-10-30T06:01:20;12.47;;;7.07;;
22213;SDS011;11276;43.566;27.824;2022-10-30T06:03:47;9.70;;;6.17;;
22213;SDS011;11276;43.566;27.824;2022-10-30T06:06:14;10.40;;;5.87;;
22213;SDS011;11276;43.566;27.824;2022-10-30T06:08:41;11.53;;;6.60;;
22213;SDS011;11276;43.566;27.824;2022-10-30T06:11:08;9.53;;;6.23;;
22213;SDS011;11276;43.566;27.824;2022-10-30T06:13:34;12.57;;;5.80;;
22213;SDS011;11276;43.566;27.824;2022-10-30T06:16:01;8.73;;;6.03;;
22213;SDS011;11276;43.566;27.824;2022-10-30T06:18:28;8.73;;;5.83;;
22213;SDS011;11276;43.566;27.824;2022-10-30T06:20:54;8.13;;;5.13;;
22213;SDS011;11276;43.566;27.824;2022-10-30T06:23:21;7.93;;;5.27;;
22213;SDS011;11276;43.566;27.824;2022-10-30T06:25:48;11.63;;;5.60;;
22213;SDS011;11276;43.566;27.824;2022-10-30T06:28:15;9.67;;;5.70;;
22213;SDS011;11276;43.566;27.824;2022-10-30T06:30:41;9.80;;;5.90;;
22213;SDS011;11276;43.566;27.824;2022-10-30T06:33:08;13.67;;;6.10;;
22213;SDS011;11276;43.566;27.824;2022-10-30T06:35:35;16.60;;;5.70;;
22213;SDS011;11276;43.566;27.824;2022-10-30T06:38:02;7.93;;;5.23;;
22213;SDS011;11276;43.566;27.824;2022-10-30T06:40:30;8.80;;;5.53;;
22213;SDS011;11276;43.566;27.824;2022-10-30T06:42:57;9.73;;;5.67;;
22213;SDS011;11276;43.566;27.824;2022-10-30T06:45:24;6.87;;;4.60;;
22213;SDS011;11276;43.566;27.824;2022-10-30T06:47:50;5.60;;;4.00;;
22213;SDS011;11276;43.566;27.824;2022-10-30T06:50:18;6.73;;;4.20;;
22213;SDS011;11276;43.566;27.824;2022-10-30T06:52:47;11.33;;;5.00;;
22213;SDS011;11276;43.566;27.824;2022-10-30T06:55:14;7.67;;;4.10;;
22213;SDS011;11276;43.566;27.824;2022-10-30T06:57:41;5.13;;;3.80;;
22213;SDS011;11276;43.566;27.824;2022-10-30T07:00:08;8.60;;;4.70;;
22213;SDS011;11276;43.566;27.824;2022-10-30T07:02:35;8.20;;;4.53;;
22213;SDS011;11276;43.566;27.824;2022-10-30T07:05:02;6.53;;;4.13;;
22213;SDS011;11276;43.566;27.824;2022-10-30T07:07:29;4.33;;;3.90;;
22213;SDS011;11276;43.566;27.824;2022-10-30T07:09:56;4.83;;;3.73;;
22213;SDS011;11276;43.566;27.824;2022-10-30T07:12:22;8.20;;;4.00;;
22213;SDS011;11276;43.566;27.824;2022-10-30T07:14:49;7.60;;;4.23;;
22213;SDS011;11276;43.566;27.824;2022-10-30T07:17:16;6.90;;;3.90;;
22213;SDS011;11276;43.566;27.824;2022-10-30T07:19:42;8.50;;;3.90;;
22213;SDS011;11276;43.566;27.824;2022-10-30T07:22:09;6.00;;;4.13;;
22213;SDS011;11276;43.566;27.824;2022-10-30T07:24:36;7.83;;;4.27;;
22213;SDS011;11276;43.566;27.824;2022-10-30T07:27:02;5.80;;;3.80;;
22213;SDS011;11276;43.566;27.824;2022-10-30T07:29:29;7.53;;;3.77;;
22213;SDS011;11276;43.566;27.824;2022-10-30T07:31:56;5.00;;;4.07;;
22213;SDS011;11276;43.566;27.824;2022-10-30T07:34:27;5.73;;;4.40;;
22213;SDS011;11276;43.566;27.824;2022-10-30T07:36:53;12.67;;;3.93;;
22213;SDS011;11276;43.566;27.824;2022-10-30T07:39:20;10.87;;;3.90;;
22213;SDS011;11276;43.566;27.824;2022-10-30T07:41:47;3.63;;;3.20;;
22213;SDS011;11276;43.566;27.824;2022-10-30T07:44:15;5.83;;;3.70;;
22213;SDS011;11276;43.566;27.824;2022-10-30T07:46:42;5.83;;;3.60;;
22213;SDS011;11276;43.566;27.824;2022-10-30T07:49:09;8.30;;;3.90;;
22213;SDS011;11276;43.566;27.824;2022-10-30T07:51:35;7.10;;;4.43;;
22213;SDS011;11276;43.566;27.824;2022-10-30T07:54:02;4.47;;;3.70;;
22213;SDS011;11276;43.566;27.824;2022-10-30T07:56:29;5.73;;;3.83;;
22213;SDS011;11276;43.566;27.824;2022-10-30T07:58:55;5.43;;;3.30;;
22213;SDS011;11276;43.566;27.824;2022-10-30T08:01:22;7.30;;;4.13;;
22213;SDS011;11276;43.566;27.824;2022-10-30T08:03:49;11.03;;;4.30;;
22213;SDS011;11276;43.566;27.824;2022-10-30T08:06:15;6.97;;;3.60;;
22213;SDS011;11276;43.566;27.824;2022-10-30T08:08:43;6.10;;;3.60;;
22213;SDS011;11276;43.566;27.824;2022-10-30T08:11:09;10.30;;;3.70;;
22213;SDS011;11276;43.566;27.824;2022-10-30T08:13:36;4.50;;;3.50;;
22213;SDS011;11276;43.566;27.824;2022-10-30T08:16:03;5.70;;;3.50;;
22213;SDS011;11276;43.566;27.824;2022-10-30T08:18:29;4.97;;;3.57;;
22213;SDS011;11276;43.566;27.824;2022-10-30T08:20:56;6.73;;;3.90;;
22213;SDS011;11276;43.566;27.824;2022-10-30T08:23:23;4.37;;;3.97;;
22213;SDS011;11276;43.566;27.824;2022-10-30T08:25:49;3.93;;;3.53;;
22213;SDS011;11276;43.566;27.824;2022-10-30T08:28:16;5.43;;;4.03;;
22213;SDS011;11276;43.566;27.824;2022-10-30T08:30:43;6.50;;;3.63;;
22213;SDS011;11276;43.566;27.824;2022-10-30T08:33:10;6.90;;;3.60;;
22213;SDS011;11276;43.566;27.824;2022-10-30T08:35:50;4.93;;;3.60;;
22213;SDS011;11276;43.566;27.824;2022-10-30T08:38:19;4.50;;;3.70;;
22213;SDS011;11276;43.566;27.824;2022-10-30T08:40:46;5.77;;;3.30;;
22213;SDS011;11276;43.566;27.824;2022-10-30T08:43:13;5.60;;;4.43;;
22213;SDS011;11276;43.566;27.824;2022-10-30T08:45:40;8.20;;;3.73;;
22213;SDS011;11276;43.566;27.824;2022-10-30T08:48:08;5.27;;;3.77;;
22213;SDS011;11276;43.566;27.824;2022-10-30T08:50:37;6.77;;;3.60;;
22213;SDS011;11276;43.566;27.824;2022-10-30T08:53:05;5.37;;;4.10;;
22213;SDS011;11276;43.566;27.824;2022-10-30T08:55:34;6.97;;;3.90;;
22213;SDS011;11276;43.566;27.824;2022-10-30T08:58:01;5.77;;;3.90;;
22213;SDS011;11276;43.566;27.824;2022-10-30T09:00:28;5.47;;;4.37;;
22213;SDS011;11276;43.566;27.824;2022-10-30T09:02:55;7.43;;;4.67;;
22213;SDS011;11276;43.566;27.824;2022-10-30T09:05:22;7.90;;;4.10;;
22213;SDS011;11276;43.566;27.824;2022-10-30T09:07:48;6.40;;;4.50;;
22213;SDS011;11276;43.566;27.824;2022-10-30T09:10:20;9.40;;;4.50;;
22213;SDS011;11276;43.566;27.824;2022-10-30T09:12:47;8.73;;;4.67;;
22213;SDS011;11276;43.566;27.824;2022-10-30T09:15:13;8.23;;;4.60;;
22213;SDS011;11276;43.566;27.824;2022-10-30T09:17:40;13.77;;;5.50;;
22213;SDS011;11276;43.566;27.824;2022-10-30T09:20:07;7.07;;;4.53;;
22213;SDS011;11276;43.566;27.824;2022-10-30T09:22:38;9.23;;;5.10;;
22213;SDS011;11276;43.566;27.824;2022-10-30T09:25:05;9.30;;;4.90;;
22213;SDS011;11276;43.566;27.824;2022-10-30T09:27:36;8.47;;;5.17;;
22213;SDS011;11276;43.566;27.824;2022-10-30T09:30:06;21.33;;;5.33;;
22213;SDS011;11276;43.566;27.824;2022-10-30T09:32:33;8.97;;;4.87;;
22213;SDS011;11276;43.566;27.824;2022-10-30T09:35:00;7.03;;;4.77;;
22213;SDS011;11276;43.566;27.824;2022-10-30T09:37:27;15.53;;;5.20;;
22213;SDS011;11276;43.566;27.824;2022-10-30T09:39:53;9.37;;;5.43;;
22213;SDS011;11276;43.566;27.824;2022-10-30T10:04:07;8.80;;;4.63;;
22213;SDS011;11276;43.566;27.824;2022-10-30T10:06:52;13.50;;;5.10;;
22213;SDS011;11276;43.566;27.824;2022-10-30T10:09:25;10.10;;;4.70;;
22213;SDS011;11276;43.566;27.824;2022-10-30T10:11:57;14.57;;;4.47;;
22213;SDS011;11276;43.566;27.824;2022-10-30T10:14:34;7.10;;;3.87;;
22213;SDS011;11276;43.566;27.824;2022-10-30T10:17:09;6.43;;;3.70;;
22213;SDS011;11276;43.566;27.824;2022-10-30T10:19:54;9.17;;;3.93;;
22213;SDS011;11276;43.566;27.824;2022-10-30T10:25:28;10.10;;;4.33;;
22213;SDS011;11276;43.566;27.824;2022-10-30T10:28:06;8.20;;;4.43;;
22213;SDS011;11276;43.566;27.824;2022-10-30T10:31:03;5.40;;;3.63;;
22213;SDS011;11276;43.566;27.824;2022-10-30T10:33:54;8.10;;;4.10;;
22213;SDS011;11276;43.566;27.824;2022-10-30T10:36:51;7.57;;;3.83;;
22213;SDS011;11276;43.566;27.824;2022-10-30T10:39:31;16.10;;;4.33;;
22213;SDS011;11276;43.566;27.824;2022-10-30T10:44:52;6.93;;;4.00;;
22213;SDS011;11276;43.566;27.824;2022-10-30T10:47:42;5.67;;;3.73;;
22213;SDS011;11276;43.566;27.824;2022-10-30T10:50:26;5.80;;;3.60;;
22213;SDS011;11276;43.566;27.824;2022-10-30T10:53:00;6.93;;;3.73;;
22213;SDS011;11276;43.566;27.824;2022-10-30T10:55:48;5.00;;;3.47;;
22213;SDS011;11276;43.566;27.824;2022-10-30T10:58:31;8.40;;;4.10;;
22213;SDS011;11276;43.566;27.824;2022-10-30T11:01:05;9.43;;;3.30;;
22213;SDS011;11276;43.566;27.824;2022-10-30T11:06:20;11.63;;;4.40;;
22213;SDS011;11276;43.566;27.824;2022-10-30T11:08:53;12.13;;;3.83;;
22213;SDS011;11276;43.566;27.824;2022-10-30T11:11:27;8.83;;;3.80;;
22213;SDS011;11276;43.566;27.824;2022-10-30T11:13:54;9.20;;;4.03;;
22213;SDS011;11276;43.566;27.824;2022-10-30T11:16:38;14.80;;;4.27;;
22213;SDS011;11276;43.566;27.824;2022-10-30T11:19:28;12.23;;;3.80;;
22213;SDS011;11276;43.566;27.824;2022-10-30T11:21:57;6.30;;;3.50;;
22213;SDS011;11276;43.566;27.824;2022-10-30T11:26:53;5.37;;;3.60;;
22213;SDS011;11276;43.566;27.824;2022-10-30T11:29:23;9.47;;;4.10;;
22213;SDS011;11276;43.566;27.824;2022-10-30T11:31:59;17.07;;;4.47;;
22213;SDS011;11276;43.566;27.824;2022-10-30T11:34:30;8.47;;;3.10;;
22213;SDS011;11276;43.566;27.824;2022-10-30T11:37:02;7.50;;;3.60;;
22213;SDS011;11276;43.566;27.824;2022-10-30T11:39:30;7.43;;;3.90;;
22213;SDS011;11276;43.566;27.824;2022-10-30T11:44:28;7.90;;;3.73;;
22213;SDS011;11276;43.566;27.824;2022-10-30T11:46:55;9.17;;;3.43;;
22213;SDS011;11276;43.566;27.824;2022-10-30T11:49:34;13.20;;;4.73;;
22213;SDS011;11276;43.566;27.824;2022-10-30T11:52:05;7.03;;;3.63;;
22213;SDS011;11276;43.566;27.824;2022-10-30T11:54:35;10.77;;;3.83;;
22213;SDS011;11276;43.566;27.824;2022-10-30T11:57:10;9.83;;;3.83;;
22213;SDS011;11276;43.566;27.824;2022-10-30T11:59:44;7.00;;;3.73;;
22213;SDS011;11276;43.566;27.824;2022-10-30T12:02:19;6.13;;;3.47;;
22213;SDS011;11276;43.566;27.824;2022-10-30T12:04:52;8.33;;;3.67;;
22213;SDS011;11276;43.566;27.824;2022-10-30T12:07:24;7.40;;;3.30;;
22213;SDS011;11276;43.566;27.824;2022-10-30T12:09:55;7.50;;;3.57;;
22213;SDS011;11276;43.566;27.824;2022-10-30T12:12:31;11.47;;;4.47;;
22213;SDS011;11276;43.566;27.824;2022-10-30T12:15:13;7.13;;;3.73;;
22213;SDS011;11276;43.566;27.824;2022-10-30T12:17:51;7.37;;;4.03;;
22213;SDS011;11276;43.566;27.824;2022-10-30T12:20:28;6.20;;;3.83;;
22213;SDS011;11276;43.566;27.824;2022-10-30T12:22:55;11.67;;;4.57;;
22213;SDS011;11276;43.566;27.824;2022-10-30T12:25:29;11.57;;;4.17;;
22213;SDS011;11276;43.566;27.824;2022-10-30T12:27:58;8.20;;;4.00;;
22213;SDS011;11276;43.566;27.824;2022-10-30T12:31:00;7.27;;;3.57;;
22213;SDS011;11276;43.566;27.824;2022-10-30T12:33:35;5.70;;;4.40;;
22213;SDS011;11276;43.566;27.824;2022-10-30T12:36:05;10.00;;;4.10;;
22213;SDS011;11276;43.566;27.824;2022-10-30T12:38:51;23.93;;;3.70;;
22213;SDS011;11276;43.566;27.824;2022-10-30T12:41:35;9.07;;;4.10;;
22213;SDS011;11276;43.566;27.824;2022-10-30T12:44:17;6.90;;;4.00;;
22213;SDS011;11276;43.566;27.824;2022-10-30T12:49:18;9.33;;;3.73;;
22213;SDS011;11276;43.566;27.824;2022-10-30T12:51:55;10.13;;;3.90;;
22213;SDS011;11276;43.566;27.824;2022-10-30T12:57:48;6.47;;;3.53;;
22213;SDS011;11276;43.566;27.824;2022-10-30T13:00:22;7.50;;;4.00;;
22213;SDS011;11276;43.566;27.824;2022-10-30T13:03:04;13.83;;;3.90;;
22213;SDS011;11276;43.566;27.824;2022-10-30T13:06:16;9.43;;;3.80;;
22213;SDS011;11276;43.566;27.824;2022-10-30T13:14:39;10.33;;;4.20;;
22213;SDS011;11276;43.566;27.824;2022-10-30T13:17:13;12.43;;;4.67;;
22213;SDS011;11276;43.566;27.824;2022-10-30T13:19:41;7.37;;;3.83;;
22213;SDS011;11276;43.566;27.824;2022-10-30T13:22:21;10.03;;;4.20;;
22213;SDS011;11276;43.566;27.824;2022-10-30T13:27:23;8.83;;;3.90;;
22213;SDS011;11276;43.566;27.824;2022-10-30T13:30:25;10.30;;;3.40;;
22213;SDS011;11276;43.566;27.824;2022-10-30T13:35:49;5.70;;;3.10;;
22213;SDS011;11276;43.566;27.824;2022-10-30T13:47:01;7.07;;;3.47;;
22213;SDS011;11276;43.566;27.824;2022-10-30T13:49:42;5.73;;;3.20;;
22213;SDS011;11276;43.566;27.824;2022-10-30T13:52:26;8.30;;;4.40;;
22213;SDS011;11276;43.566;27.824;2022-10-30T13:55:01;5.00;;;3.37;;
22213;SDS011;11276;43.566;27.824;2022-10-30T14:03:28;8.93;;;4.03;;
22213;SDS011;11276;43.566;27.824;2022-10-30T14:11:15;8.17;;;3.40;;
22213;SDS011;11276;43.566;27.824;2022-10-30T14:16:40;7.20;;;3.70;;
22213;SDS011;11276;43.566;27.824;2022-10-30T14:19:09;8.43;;;4.33;;
22213;SDS011;11276;43.566;27.824;2022-10-30T14:24:26;20.00;;;4.50;;
22213;SDS011;11276;43.566;27.824;2022-10-30T14:26:56;11.30;;;3.80;;
22213;SDS011;11276;43.566;27.824;2022-10-30T14:29:37;10.77;;;4.10;;
22213;SDS011;11276;43.566;27.824;2022-10-30T14:34:41;13.53;;;4.60;;
22213;SDS011;11276;43.566;27.824;2022-10-30T14:37:52;15.80;;;4.13;;
22213;SDS011;11276;43.566;27.824;2022-10-30T14:46:00;10.07;;;4.23;;
22213;SDS011;11276;43.566;27.824;2022-10-30T14:51:32;11.17;;;4.90;;
22213;SDS011;11276;43.566;27.824;2022-10-30T14:54:21;12.87;;;6.30;;
22213;SDS011;11276;43.566;27.824;2022-10-30T14:56:56;13.20;;;5.97;;
22213;SDS011;11276;43.566;27.824;2022-10-30T14:59:23;13.87;;;6.40;;
22213;SDS011;11276;43.566;27.824;2022-10-30T15:15:32;27.47;;;8.00;;
22213;SDS011;11276;43.566;27.824;2022-10-30T15:18:18;16.50;;;7.10;;
22213;SDS011;11276;43.566;27.824;2022-10-30T15:20:49;28.60;;;8.27;;
22213;SDS011;11276;43.566;27.824;2022-10-30T15:23:19;18.63;;;9.00;;
22213;SDS011;11276;43.566;27.824;2022-10-30T15:25:51;30.97;;;9.67;;
22213;SDS011;11276;43.566;27.824;2022-10-30T15:28:20;22.20;;;10.10;;
22213;SDS011;11276;43.566;27.824;2022-10-30T15:33:27;18.70;;;9.90;;
22213;SDS011;11276;43.566;27.824;2022-10-30T15:35:57;17.23;;;10.03;;
22213;SDS011;11276;43.566;27.824;2022-10-30T15:38:24;24.13;;;10.77;;
22213;SDS011;11276;43.566;27.824;2022-10-30T15:40:55;28.23;;;10.97;;
22213;SDS011;11276;43.566;27.824;2022-10-30T15:43:30;24.60;;;11.00;;
22213;SDS011;11276;43.566;27.824;2022-10-30T15:46:00;25.00;;;10.50;;
22213;SDS011;11276;43.566;27.824;2022-10-30T15:48:33;28.57;;;12.23;;
22213;SDS011;11276;43.566;27.824;2022-10-30T15:51:02;27.43;;;12.23;;
22213;SDS011;11276;43.566;27.824;2022-10-30T15:53:39;23.50;;;10.80;;
22213;SDS011;11276;43.566;27.824;2022-10-30T15:56:18;27.03;;;11.00;;
22213;SDS011;11276;43.566;27.824;2022-10-30T15:58:57;25.70;;;11.57;;
22213;SDS011;11276;43.566;27.824;2022-10-30T16:03:58;25.93;;;13.90;;
22213;SDS011;11276;43.566;27.824;2022-10-30T16:06:26;27.80;;;13.00;;
22213;SDS011;11276;43.566;27.824;2022-10-30T16:08:54;31.13;;;12.83;;
22213;SDS011;11276;43.566;27.824;2022-10-30T16:11:21;30.80;;;12.07;;
22213;SDS011;11276;43.566;27.824;2022-10-30T16:13:49;26.97;;;12.70;;
22213;SDS011;11276;43.566;27.824;2022-10-30T16:18:57;31.80;;;12.57;;
22213;SDS011;11276;43.566;27.824;2022-10-30T16:21:27;28.77;;;12.40;;
22213;SDS011;11276;43.566;27.824;2022-10-30T16:23:58;22.03;;;11.90;;
22213;SDS011;11276;43.566;27.824;2022-10-30T16:26:34;27.03;;;12.30;;
22213;SDS011;11276;43.566;27.824;2022-10-30T16:31:38;40.53;;;13.13;;
22213;SDS011;11276;43.566;27.824;2022-10-30T16:34:13;26.60;;;12.80;;
22213;SDS011;11276;43.566;27.824;2022-10-30T16:36:56;27.97;;;11.67;;
22213;SDS011;11276;43.566;27.824;2022-10-30T16:39:25;28.80;;;12.90;;
22213;SDS011;11276;43.566;27.824;2022-10-30T16:41:56;56.93;;;13.87;;
22213;SDS011;11276;43.566;27.824;2022-10-30T16:49:48;29.33;;;14.77;;
22213;SDS011;11276;43.566;27.824;2022-10-30T16:52:24;33.40;;;15.77;;
22213;SDS011;11276;43.566;27.824;2022-10-30T16:57:31;44.00;;;19.20;;
22213;SDS011;11276;43.566;27.824;2022-10-30T17:00:01;49.50;;;21.13;;
22213;SDS011;11276;43.566;27.824;2022-10-30T17:02:33;61.33;;;21.93;;
22213;SDS011;11276;43.566;27.824;2022-10-30T17:05:17;60.90;;;22.10;;
22213;SDS011;11276;43.566;27.824;2022-10-30T17:07:54;49.67;;;21.27;;